| time (UTC) | temp C | wind direction | speed KPH | gust KPH | rain 1hr cm | rain 24hr cm | rain mn cm | humidity % | barometer mb |
| 20260506194503 | 10 | 261 | 1.6 | 9.7 | 0.00 | 0.05 | 0.05 | 90 | 1019.1 |
| 20260506194045 | 10 | 261 | 0.0 | 9.7 | 0.00 | 0.03 | 0.03 | 89 | 1008.5 |
| 20260506194003 | 10 | 261 | 1.6 | 9.7 | 0.00 | 0.05 | 0.05 | 90 | 1019.1 |
| 20260506193718 | 10 | 260 | 1.6 | 9.7 | 0.00 | 0.05 | 0.05 | 90 | 1019.1 |
| 20260506193545 | 10 | 261 | 3.2 | 9.7 | 0.00 | 0.03 | 0.03 | 89 | 1008.5 |
| 20260506193104 | 10 | 0 | 0.0 | 6.4 | 0.00 | 0.03 | 0.03 | 89 | 1008.3 |
| 20260506193003 | 11 | 259 | 1.6 | 9.7 | 0.00 | 0.05 | 0.05 | 90 | 1019.0 |
| 20260506192547 | 10 | 259 | 1.6 | 9.7 | 0.00 | 0.03 | 0.03 | 89 | 1008.3 |
| 20260506192503 | 11 | 259 | 3.2 | 9.7 | 0.00 | 0.05 | 0.05 | 90 | 1018.9 |
| 20260506192045 | 10 | 259 | 1.6 | 9.7 | 0.00 | 0.03 | 0.03 | 89 | 1008.3 |
| 20260506192003 | 11 | 260 | 3.2 | 9.7 | 0.00 | 0.05 | 0.05 | 89 | 1018.8 |
| 20260506191557 | 10 | 260 | 3.2 | 9.7 | 0.00 | 0.03 | 0.03 | 89 | 1008.1 |
| 20260506191503 | 11 | 259 | 3.2 | 9.7 | 0.00 | 0.05 | 0.05 | 89 | 1018.8 |
| 20260506191047 | 10 | 259 | 3.2 | 9.7 | 0.00 | 0.03 | 0.03 | 88 | 1008.1 |
| 20260506191003 | 11 | 259 | 3.2 | 9.7 | 0.00 | 0.05 | 0.05 | 89 | 1018.6 |
| 20260506190546 | 10 | 260 | 1.6 | 6.4 | 0.00 | 0.03 | 0.03 | 88 | 1008.0 |
| 20260506190503 | 11 | 259 | 3.2 | 6.4 | 0.00 | 0.05 | 0.05 | 89 | 1018.5 |
| 20260506190055 | 10 | 259 | 1.6 | 6.4 | 0.00 | 0.03 | 0.03 | 88 | 1007.9 |
| 20260506190003 | 11 | 258 | 3.2 | 9.7 | 0.00 | 0.05 | 0.05 | 89 | 1018.5 |
| 20260506185546 | 11 | 259 | 3.2 | 6.4 | 0.00 | 0.03 | 0.03 | 88 | 1007.9 |
| 20260506185503 | 11 | 258 | 3.2 | 9.7 | 0.00 | 0.05 | 0.05 | 89 | 1018.4 |
| 20260506185046 | 11 | 259 | 1.6 | 9.7 | 0.00 | 0.03 | 0.03 | 88 | 1007.8 |
| 20260506185003 | 11 | 261 | 3.2 | 9.7 | 0.00 | 0.05 | 0.05 | 89 | 1018.4 |
| 20260506184556 | 11 | 262 | 3.2 | 9.7 | 0.00 | 0.03 | 0.03 | 88 | 1007.7 |
| 20260506184503 | 11 | 263 | 3.2 | 9.7 | 0.00 | 0.05 | 0.05 | 88 | 1018.3 |
| 20260506184047 | 11 | 264 | 3.2 | 6.4 | 0.00 | 0.03 | 0.03 | 88 | 1007.7 |
| 20260506184003 | 11 | 266 | 3.2 | 9.7 | 0.00 | 0.05 | 0.05 | 88 | 1018.2 |
| 20260506183549 | 11 | 0 | 3.2 | 9.7 | 0.00 | 0.03 | 0.03 | 87 | 1007.6 |
| 20260506183503 | 11 | 266 | 3.2 | 9.7 | 0.00 | 0.05 | 0.05 | 88 | 1018.2 |
| 20260506183100 | 11 | 0 | 0.0 | 9.7 | 0.00 | 0.03 | 0.03 | 87 | 1007.6 |
| 20260506183003 | 11 | 265 | 3.2 | 12.9 | 0.00 | 0.05 | 0.05 | 88 | 1018.1 |
| 20260506182545 | 11 | 265 | 3.2 | 9.7 | 0.00 | 0.03 | 0.03 | 87 | 1007.6 |
| 20260506182503 | 11 | 263 | 3.2 | 12.9 | 0.00 | 0.05 | 0.05 | 88 | 1018.1 |
| 20260506182216 | 11 | 263 | 4.8 | 12.9 | 0.00 | 0.05 | 0.05 | 87 | 1018.0 |
| 20260506182047 | 11 | 263 | 3.2 | 12.9 | 0.00 | 0.03 | 0.03 | 87 | 1007.5 |
| 20260506181556 | 11 | 265 | 4.8 | 12.9 | 0.00 | 0.03 | 0.03 | 87 | 1007.4 |
| 20260506181503 | 11 | 265 | 4.8 | 12.9 | 0.00 | 0.05 | 0.05 | 87 | 1017.9 |
| 20260506181046 | 11 | 275 | 4.8 | 12.9 | 0.00 | 0.03 | 0.03 | 86 | 1007.2 |
| 20260506181003 | 11 | 265 | 4.8 | 16.1 | 0.00 | 0.05 | 0.05 | 87 | 1017.9 |
| 20260506180550 | 11 | 267 | 3.2 | 16.1 | 0.00 | 0.03 | 0.03 | 86 | 1007.2 |
| 20260506180503 | 11 | 267 | 4.8 | 16.1 | 0.00 | 0.05 | 0.05 | 87 | 1017.8 |
| 20260506180218 | 11 | 266 | 4.8 | 16.1 | 0.00 | 0.05 | 0.05 | 87 | 1017.9 |
| 20260506180054 | 11 | 269 | 3.2 | 16.1 | 0.00 | 0.03 | 0.03 | 86 | 1007.3 |
| 20260506175547 | 11 | 256 | 4.8 | 16.1 | 0.00 | 0.03 | 0.03 | 86 | 1007.3 |
| 20260506175503 | 11 | 263 | 4.8 | 16.1 | 0.00 | 0.05 | 0.05 | 87 | 1017.8 |
| 20260506175049 | 11 | 263 | 3.2 | 9.7 | 0.00 | 0.03 | 0.03 | 86 | 1007.1 |
| 20260506175003 | 11 | 267 | 3.2 | 11.3 | 0.00 | 0.05 | 0.05 | 87 | 1017.7 |
| 20260506174551 | 11 | 265 | 3.2 | 11.3 | 0.00 | 0.03 | 0.03 | 86 | 1007.2 |
| 20260506174503 | 11 | 270 | 3.2 | 11.3 | 0.00 | 0.05 | 0.05 | 87 | 1017.6 |
| 20260506174047 | 11 | 272 | 1.6 | 11.3 | 0.00 | 0.03 | 0.03 | 86 | 1007.0 |
| 20260506174003 | 11 | 270 | 3.2 | 11.3 | 0.00 | 0.05 | 0.05 | 87 | 1017.6 |
| 20260506173717 | 11 | 270 | 3.2 | 11.3 | 0.00 | 0.05 | 0.05 | 86 | 1017.5 |
| 20260506173547 | 11 | 271 | 1.6 | 6.4 | 0.00 | 0.03 | 0.03 | 86 | 1007.0 |
| 20260506173058 | 11 | 269 | 1.6 | 9.7 | 0.00 | 0.03 | 0.03 | 86 | 1007.0 |
| 20260506173003 | 11 | 270 | 3.2 | 9.7 | 0.00 | 0.05 | 0.05 | 86 | 1017.5 |
| 20260506172546 | 11 | 0 | 3.2 | 9.7 | 0.00 | 0.03 | 0.03 | 86 | 1006.9 |
| 20260506172503 | 11 | 271 | 3.2 | 9.7 | 0.00 | 0.05 | 0.05 | 86 | 1017.4 |
| 20260506172048 | 11 | 272 | 1.6 | 4.8 | 0.00 | 0.03 | 0.03 | 86 | 1006.9 |
| 20260506172003 | 11 | 271 | 1.6 | 4.8 | 0.00 | 0.05 | 0.05 | 86 | 1017.4 |
| 20260506171554 | 11 | 0 | 0.0 | 4.8 | 0.00 | 0.03 | 0.03 | 85 | 1006.8 |
| 20260506171503 | 12 | 271 | 1.6 | 6.4 | 0.00 | 0.05 | 0.05 | 86 | 1017.4 |
| 20260506171047 | 11 | 0 | 0.0 | 6.4 | 0.00 | 0.03 | 0.03 | 85 | 1006.8 |
| 20260506171003 | 12 | 271 | 0.0 | 6.4 | 0.00 | 0.05 | 0.05 | 86 | 1017.4 |
| 20260506170546 | 11 | 0 | 0.0 | 6.4 | 0.00 | 0.03 | 0.03 | 85 | 1006.8 |
| 20260506170503 | 12 | 273 | 1.6 | 6.4 | 0.00 | 0.05 | 0.05 | 86 | 1017.4 |
| 20260506170218 | 12 | 272 | 1.6 | 6.4 | 0.00 | 0.05 | 0.05 | 86 | 1017.3 |
| 20260506170108 | 11 | 0 | 0.0 | 6.4 | 0.00 | 0.03 | 0.03 | 85 | 1006.9 |
| 20260506165717 | 12 | 270 | 1.6 | 6.4 | 0.00 | 0.05 | 0.05 | 86 | 1017.3 |
| 20260506165546 | 11 | 0 | 0.0 | 6.4 | 0.00 | 0.43 | 0.03 | 85 | 1006.8 |
| 20260506165046 | 12 | 0 | 0.0 | 6.4 | 0.00 | 0.43 | 0.03 | 85 | 1006.8 |
| 20260506165003 | 12 | 265 | 1.6 | 11.3 | 0.00 | 0.05 | 0.05 | 86 | 1017.3 |
| 20260506164606 | 12 | 270 | 3.2 | 11.3 | 0.00 | 0.43 | 0.03 | 85 | 1006.7 |
| 20260506164503 | 12 | 265 | 3.2 | 11.3 | 0.00 | 0.05 | 0.05 | 86 | 1017.2 |
| 20260506164046 | 12 | 263 | 3.2 | 11.3 | 0.00 | 0.43 | 0.03 | 84 | 1006.7 |
| 20260506164003 | 12 | 266 | 4.8 | 14.5 | 0.00 | 0.05 | 0.05 | 85 | 1017.2 |
| 20260506163545 | 12 | 0 | 6.4 | 12.9 | 0.00 | 0.43 | 0.03 | 84 | 1006.6 |
| 20260506163503 | 12 | 266 | 6.4 | 14.5 | 0.00 | 0.05 | 0.05 | 84 | 1017.2 |
| 20260506163100 | 12 | 277 | 6.4 | 14.5 | 0.00 | 0.43 | 0.03 | 84 | 1006.6 |
| 20260506163003 | 12 | 268 | 4.8 | 14.5 | 0.00 | 0.05 | 0.05 | 84 | 1017.2 |
| 20260506162549 | 12 | 264 | 3.2 | 14.5 | 0.00 | 0.43 | 0.03 | 84 | 1006.5 |
| 20260506162503 | 12 | 267 | 4.8 | 14.5 | 0.00 | 0.18 | 0.05 | 84 | 1017.1 |
| 20260506162046 | 12 | 278 | 3.2 | 12.9 | 0.00 | 0.43 | 0.03 | 84 | 1006.6 |
| 20260506162003 | 12 | 268 | 3.2 | 14.5 | 0.03 | 0.20 | 0.05 | 84 | 1017.2 |
| 20260506161554 | 12 | 0 | 0.0 | 14.5 | 0.00 | 0.43 | 0.03 | 84 | 1006.5 |
| 20260506161503 | 12 | 276 | 3.2 | 14.5 | 0.03 | 0.20 | 0.05 | 84 | 1017.1 |
| 20260506161217 | 13 | 274 | 3.2 | 14.5 | 0.03 | 0.23 | 0.05 | 84 | 1017.0 |
| 20260506161046 | 12 | 275 | 3.2 | 14.5 | 0.00 | 0.43 | 0.03 | 83 | 1006.5 |
| 20260506160547 | 12 | 298 | 1.6 | 14.5 | 0.00 | 0.43 | 0.03 | 84 | 1006.4 |
| 20260506160503 | 13 | 266 | 4.8 | 14.5 | 0.03 | 0.30 | 0.05 | 85 | 1016.9 |
| 20260506160059 | 13 | 260 | 3.2 | 14.5 | 0.00 | 0.43 | 0.03 | 84 | 1006.5 |
| 20260506160003 | 13 | 268 | 4.8 | 14.5 | 0.03 | 0.43 | 0.05 | 84 | 1017.0 |
| 20260506155551 | 13 | 288 | 3.2 | 12.9 | 0.00 | 1.02 | 0.03 | 84 | 1006.5 |
| 20260506155503 | 13 | 267 | 3.2 | 12.9 | 0.03 | 0.71 | 0.05 | 85 | 1017.0 |
| 20260506155047 | 13 | 269 | 3.2 | 11.3 | 0.00 | 1.02 | 0.03 | 84 | 1006.4 |
| 20260506155003 | 13 | 254 | 3.2 | 11.3 | 0.03 | 0.81 | 0.05 | 85 | 1017.0 |
| 20260506154716 | 13 | 237 | 3.2 | 11.3 | 0.03 | 0.89 | 0.05 | 85 | 1016.9 |
| 20260506154557 | 13 | 298 | 1.6 | 11.3 | 0.00 | 1.02 | 0.03 | 85 | 1006.5 |
| 20260506154048 | 13 | 201 | 1.6 | 9.7 | 0.00 | 1.02 | 0.03 | 85 | 1006.4 |
| 20260506154003 | 13 | 249 | 1.6 | 14.5 | 0.03 | 0.91 | 0.05 | 86 | 1016.9 |
| 20260506153551 | 13 | 0 | 0.0 | 14.5 | 0.00 | 1.02 | 0.03 | 86 | 1006.4 |
| 20260506153503 | 13 | 262 | 3.2 | 14.5 | 0.03 | 0.91 | 0.05 | 86 | 1016.8 |
| 20260506153052 | 12 | 255 | 3.2 | 14.5 | 0.00 | 1.02 | 0.03 | 85 | 1006.4 |
| 20260506153003 | 13 | 262 | 4.8 | 14.5 | 0.03 | 0.91 | 0.05 | 86 | 1016.9 |
| 20260506152546 | 12 | 263 | 6.4 | 14.5 | 0.00 | 1.02 | 0.03 | 86 | 1006.4 |
| 20260506152503 | 13 | 263 | 4.8 | 14.5 | 0.03 | 0.91 | 0.05 | 86 | 1016.9 |
| 20260506152048 | 12 | 266 | 4.8 | 11.3 | 0.00 | 1.02 | 0.00 | 86 | 1006.4 |
| 20260506152003 | 13 | 269 | 4.8 | 14.5 | 0.00 | 0.89 | 0.03 | 87 | 1016.9 |
| 20260506151557 | 12 | 270 | 1.6 | 14.5 | 0.00 | 1.02 | 0.00 | 87 | 1006.5 |
| 20260506151503 | 13 | 273 | 3.2 | 14.5 | 0.00 | 0.89 | 0.03 | 87 | 1017.0 |
| 20260506151045 | 12 | 271 | 1.6 | 14.5 | 0.00 | 1.02 | 0.00 | 87 | 1006.5 |
| 20260506151003 | 12 | 268 | 4.8 | 14.5 | 0.00 | 0.91 | 0.03 | 87 | 1016.9 |
| 20260506150546 | 12 | 279 | 4.8 | 11.3 | 0.00 | 1.02 | 0.00 | 86 | 1006.4 |
| 20260506150503 | 12 | 266 | 4.8 | 11.3 | 0.00 | 0.97 | 0.03 | 86 | 1016.9 |
| 20260506150003 | 12 | 270 | 3.2 | 9.7 | 0.00 | 1.02 | 0.03 | 87 | 1016.8 |
| 20260506145546 | 12 | 0 | 1.6 | 9.7 | 0.00 | 1.12 | 0.00 | 86 | 1006.4 |
| 20260506145503 | 13 | 257 | 1.6 | 11.3 | 0.00 | 1.07 | 0.03 | 86 | 1016.9 |
| 20260506145046 | 12 | 98 | 1.6 | 8.0 | 0.00 | 1.12 | 0.00 | 86 | 1006.4 |
| 20260506145003 | 13 | 251 | 3.2 | 11.3 | 0.00 | 1.09 | 0.03 | 86 | 1016.9 |
| 20260506144718 | 13 | 251 | 3.2 | 11.3 | 0.00 | 1.14 | 0.03 | 86 | 1016.8 |
| 20260506144552 | 13 | 255 | 3.2 | 11.3 | 0.00 | 1.12 | 0.00 | 86 | 1006.3 |
| 20260506144045 | 13 | 250 | 3.2 | 11.3 | 0.00 | 1.12 | 0.00 | 86 | 1006.2 |
| 20260506144003 | 13 | 259 | 4.8 | 11.3 | 0.00 | 1.14 | 0.03 | 86 | 1016.7 |
| 20260506143549 | 13 | 269 | 4.8 | 11.3 | 0.00 | 1.12 | 0.00 | 85 | 1006.2 |
| 20260506143503 | 13 | 261 | 4.8 | 12.9 | 0.00 | 1.14 | 0.03 | 86 | 1016.8 |
| 20260506143054 | 13 | 270 | 4.8 | 11.3 | 0.00 | 1.12 | 0.00 | 85 | 1006.1 |
| 20260506143003 | 13 | 268 | 4.8 | 12.9 | 0.00 | 1.14 | 0.03 | 86 | 1016.7 |
| 20260506142547 | 13 | 278 | 3.2 | 12.9 | 0.00 | 1.12 | 0.00 | 86 | 1006.2 |
| 20260506142503 | 13 | 270 | 4.8 | 12.9 | 0.00 | 1.14 | 0.03 | 86 | 1016.6 |
| 20260506142047 | 13 | 263 | 3.2 | 12.9 | 0.00 | 1.12 | 0.00 | 86 | 1006.1 |
| 20260506142003 | 13 | 272 | 4.8 | 12.9 | 0.00 | 1.14 | 0.03 | 86 | 1016.6 |
| 20260506141552 | 13 | 228 | 3.2 | 11.3 | 0.00 | 1.12 | 0.00 | 85 | 1006.1 |
| 20260506141503 | 13 | 282 | 3.2 | 11.3 | 0.00 | 1.14 | 0.03 | 86 | 1016.7 |
| 20260506141046 | 13 | 0 | 3.2 | 11.3 | 0.00 | 1.12 | 0.00 | 85 | 1006.1 |
| 20260506141003 | 13 | 288 | 3.2 | 11.3 | 0.00 | 1.14 | 0.03 | 85 | 1016.7 |
| 20260506140547 | 13 | 303 | 1.6 | 14.5 | 0.00 | 1.12 | 0.00 | 84 | 1006.1 |
| 20260506140503 | 13 | 275 | 4.8 | 16.1 | 0.00 | 1.14 | 0.03 | 84 | 1016.5 |
| 20260506140052 | 13 | 0 | 4.8 | 16.1 | 0.00 | 1.12 | 0.00 | 82 | 1006.1 |
| 20260506140003 | 13 | 265 | 6.4 | 16.1 | 0.00 | 1.14 | 0.03 | 82 | 1016.7 |
| 20260506135546 | 13 | 244 | 4.8 | 16.1 | 0.00 | 1.12 | 0.00 | 80 | 1006.1 |
| 20260506135503 | 14 | 266 | 6.4 | 16.1 | 0.00 | 1.14 | 0.03 | 81 | 1016.6 |
| 20260506135045 | 14 | 260 | 4.8 | 16.1 | 0.00 | 1.12 | 0.00 | 79 | 1006.1 |
| 20260506135003 | 14 | 258 | 6.4 | 16.1 | 0.00 | 1.14 | 0.03 | 79 | 1016.6 |
| 20260506134552 | 14 | 248 | 6.4 | 16.1 | 0.00 | 1.12 | 0.00 | 78 | 1005.9 |
| 20260506134503 | 14 | 249 | 6.4 | 16.1 | 0.00 | 1.14 | 0.03 | 79 | 1016.5 |
| 20260506134048 | 14 | 259 | 6.4 | 16.1 | 0.00 | 1.12 | 0.00 | 78 | 1006.0 |
| 20260506134003 | 14 | 253 | 6.4 | 16.1 | 0.00 | 1.14 | 0.03 | 79 | 1016.5 |
| 20260506133546 | 13 | 249 | 6.4 | 12.9 | 0.00 | 1.12 | 0.00 | 79 | 1006.0 |
| 20260506133503 | 14 | 255 | 4.8 | 14.5 | 0.00 | 1.14 | 0.03 | 80 | 1016.5 |
| 20260506133216 | 14 | 249 | 3.2 | 14.5 | 0.00 | 1.14 | 0.03 | 82 | 1016.4 |
| 20260506133107 | 13 | 275 | 3.2 | 12.9 | 0.00 | 1.12 | 0.00 | 81 | 1005.9 |
| 20260506132545 | 13 | 0 | 1.6 | 14.5 | 0.00 | 1.12 | 0.00 | 84 | 1006.0 |
| 20260506132503 | 13 | 248 | 4.8 | 14.5 | 0.00 | 1.14 | 0.03 | 84 | 1016.4 |
| 20260506132046 | 13 | 269 | 4.8 | 14.5 | 0.00 | 1.12 | 0.00 | 82 | 1005.9 |
| 20260506132003 | 13 | 251 | 6.4 | 19.3 | 0.00 | 1.14 | 0.03 | 82 | 1016.5 |
| 20260506131606 | 13 | 245 | 6.4 | 17.7 | 0.00 | 1.12 | 0.00 | 81 | 1005.9 |
| 20260506131503 | 13 | 256 | 8.0 | 19.3 | 0.00 | 1.14 | 0.03 | 81 | 1016.5 |
| 20260506131216 | 13 | 259 | 8.0 | 19.3 | 0.00 | 1.14 | 0.03 | 81 | 1016.5 |
| 20260506131048 | 13 | 247 | 6.4 | 19.3 | 0.00 | 1.12 | 0.00 | 81 | 1005.9 |
| 20260506130548 | 14 | 267 | 9.7 | 19.3 | 0.00 | 1.12 | 0.00 | 79 | 1005.8 |
| 20260506130503 | 14 | 242 | 6.4 | 19.3 | 0.00 | 1.14 | 0.03 | 79 | 1016.4 |
| 20260506130049 | 14 | 258 | 3.2 | 16.1 | 0.00 | 1.12 | 0.00 | 79 | 1005.8 |
| 20260506130003 | 14 | 220 | 4.8 | 17.7 | 0.00 | 1.14 | 0.03 | 81 | 1016.4 |
| 20260506125717 | 14 | 232 | 6.4 | 17.7 | 0.00 | 1.14 | 0.03 | 81 | 1016.3 |
| 20260506125547 | 14 | 209 | 4.8 | 17.7 | 0.00 | 1.14 | 0.00 | 80 | 1005.8 |
| 20260506125048 | 13 | 259 | 6.4 | 17.7 | 0.00 | 1.14 | 0.00 | 82 | 1005.8 |
| 20260506125003 | 13 | 250 | 6.4 | 17.7 | 0.00 | 1.14 | 0.03 | 83 | 1016.3 |
| 20260506124555 | 13 | 257 | 8.0 | 16.1 | 0.00 | 1.14 | 0.00 | 82 | 1005.8 |
| 20260506124503 | 13 | 256 | 6.4 | 19.3 | 0.00 | 1.14 | 0.03 | 82 | 1016.4 |
| 20260506124047 | 13 | 267 | 4.8 | 19.3 | 0.00 | 1.14 | 0.00 | 83 | 1005.9 |
| 20260506124003 | 13 | 259 | 6.4 | 19.3 | 0.00 | 1.14 | 0.03 | 83 | 1016.4 |
| 20260506123547 | 13 | 0 | 6.4 | 19.3 | 0.00 | 1.14 | 0.00 | 80 | 1005.8 |
| 20260506123503 | 13 | 256 | 8.0 | 19.3 | 0.00 | 1.14 | 0.03 | 80 | 1016.5 |
| 20260506123055 | 14 | 259 | 8.0 | 19.3 | 0.00 | 1.14 | 0.00 | 77 | 1005.8 |
| 20260506123003 | 15 | 256 | 4.8 | 19.3 | 0.00 | 1.14 | 0.03 | 76 | 1016.4 |
| 20260506122546 | 14 | 217 | 1.6 | 16.1 | 0.00 | 1.14 | 0.00 | 75 | 1005.7 |
| 20260506122503 | 15 | 248 | 3.2 | 17.7 | 0.00 | 1.17 | 0.03 | 75 | 1016.3 |
| 20260506122047 | 14 | 256 | 1.6 | 17.7 | 0.00 | 1.14 | 0.00 | 75 | 1005.8 |
| 20260506122003 | 15 | 205 | 6.4 | 17.7 | 0.00 | 1.17 | 0.03 | 75 | 1016.4 |
| 20260506121556 | 14 | 208 | 8.0 | 17.7 | 0.00 | 1.14 | 0.00 | 75 | 1005.8 |
| 20260506121503 | 15 | 197 | 8.0 | 19.3 | 0.00 | 1.17 | 0.03 | 76 | 1016.3 |
| 20260506121046 | 14 | 188 | 8.0 | 17.7 | 0.00 | 1.14 | 0.00 | 77 | 1005.7 |
| 20260506121003 | 14 | 200 | 8.0 | 19.3 | 0.00 | 1.17 | 0.03 | 77 | 1016.3 |
| 20260506120546 | 14 | 194 | 6.4 | 19.3 | 0.00 | 1.14 | 0.00 | 77 | 1005.7 |
| 20260506120503 | 14 | 199 | 8.0 | 19.3 | 0.00 | 1.17 | 0.03 | 77 | 1016.3 |
| 20260506120218 | 14 | 198 | 8.0 | 19.3 | 0.00 | 1.17 | 0.03 | 77 | 1016.3 |
| 20260506115717 | 14 | 196 | 6.4 | 17.7 | 0.00 | 1.17 | 0.03 | 78 | 1016.2 |
| 20260506115546 | 13 | 191 | 6.4 | 17.7 | 0.00 | 1.22 | 0.00 | 77 | 1005.6 |
| 20260506115218 | 14 | 197 | 6.4 | 14.5 | 0.00 | 1.17 | 0.03 | 77 | 1016.1 |
| 20260506115045 | 13 | 196 | 6.4 | 14.5 | 0.00 | 1.22 | 0.00 | 77 | 1005.7 |
| 20260506114555 | 13 | 199 | 4.8 | 12.9 | 0.00 | 1.22 | 0.00 | 76 | 1005.6 |
| 20260506114503 | 14 | 199 | 4.8 | 12.9 | 0.00 | 1.19 | 0.03 | 75 | 1016.2 |
| 20260506114049 | 14 | 208 | 3.2 | 11.3 | 0.00 | 1.22 | 0.00 | 75 | 1005.7 |
| 20260506114003 | 14 | 200 | 4.8 | 12.9 | 0.00 | 1.19 | 0.03 | 75 | 1016.3 |
| 20260506113547 | 14 | 181 | 3.2 | 11.3 | 0.00 | 1.22 | 0.00 | 74 | 1005.7 |
| 20260506113503 | 14 | 205 | 4.8 | 12.9 | 0.00 | 1.19 | 0.03 | 75 | 1016.2 |
| 20260506113218 | 14 | 199 | 6.4 | 12.9 | 0.00 | 1.19 | 0.03 | 74 | 1016.2 |
| 20260506113053 | 14 | 205 | 4.8 | 12.9 | 0.00 | 1.22 | 0.00 | 73 | 1005.6 |
| 20260506112549 | 14 | 185 | 6.4 | 12.9 | 0.00 | 1.22 | 0.00 | 74 | 1005.6 |
| 20260506112503 | 14 | 204 | 4.8 | 12.9 | 0.00 | 1.19 | 0.03 | 75 | 1016.1 |
| 20260506112046 | 13 | 0 | 3.2 | 11.3 | 0.00 | 1.22 | 0.00 | 75 | 1005.7 |
| 20260506112003 | 14 | 200 | 4.8 | 11.3 | 0.00 | 1.22 | 0.03 | 76 | 1016.1 |
| 20260506111553 | 13 | 227 | 4.8 | 11.3 | 0.00 | 1.22 | 0.00 | 76 | 1005.7 |
| 20260506111503 | 14 | 192 | 4.8 | 11.3 | 0.00 | 1.22 | 0.03 | 76 | 1016.2 |
| 20260506111046 | 13 | 171 | 4.8 | 11.3 | 0.00 | 1.22 | 0.00 | 77 | 1005.6 |
| 20260506111003 | 13 | 198 | 3.2 | 11.3 | 0.00 | 1.22 | 0.03 | 78 | 1016.1 |
| 20260506110547 | 13 | 192 | 1.6 | 11.3 | 0.00 | 1.22 | 0.00 | 78 | 1005.6 |
| 20260506110503 | 13 | 226 | 1.6 | 11.3 | 0.00 | 1.22 | 0.03 | 78 | 1016.2 |
| 20260506110104 | 13 | 0 | 1.6 | 11.3 | 0.00 | 1.22 | 0.00 | 78 | 1005.6 |
| 20260506110003 | 13 | 258 | 3.2 | 11.3 | 0.00 | 1.22 | 0.03 | 78 | 1016.2 |
| 20260506105547 | 13 | 271 | 1.6 | 11.3 | 0.00 | 1.22 | 0.00 | 79 | 1005.7 |
| 20260506105503 | 13 | 272 | 3.2 | 11.3 | 0.00 | 1.22 | 0.03 | 78 | 1016.2 |
| 20260506105047 | 13 | 272 | 1.6 | 11.3 | 0.00 | 1.22 | 0.00 | 79 | 1005.7 |
| 20260506105003 | 13 | 272 | 3.2 | 11.3 | 0.00 | 1.22 | 0.03 | 79 | 1016.2 |
| 20260506104603 | 13 | 272 | 3.2 | 11.3 | 0.00 | 1.22 | 0.00 | 79 | 1005.6 |
| 20260506104503 | 13 | 276 | 3.2 | 11.3 | 0.00 | 1.22 | 0.03 | 80 | 1016.2 |
| 20260506104045 | 13 | 286 | 1.6 | 11.3 | 0.00 | 1.22 | 0.00 | 79 | 1005.6 |
| 20260506104003 | 13 | 269 | 3.2 | 11.3 | 0.00 | 1.22 | 0.03 | 80 | 1016.2 |
| 20260506103545 | 13 | 259 | 3.2 | 11.3 | 0.00 | 1.22 | 0.00 | 78 | 1005.7 |
| 20260506103503 | 14 | 260 | 3.2 | 11.3 | 0.00 | 1.22 | 0.03 | 78 | 1016.2 |
| 20260506103052 | 13 | 255 | 1.6 | 9.7 | 0.00 | 1.22 | 0.00 | 76 | 1005.6 |
| 20260506103003 | 14 | 256 | 3.2 | 11.3 | 0.00 | 1.22 | 0.03 | 77 | 1016.1 |
| 20260506102549 | 13 | 252 | 3.2 | 11.3 | 0.00 | 1.22 | 0.00 | 76 | 1005.5 |
| 20260506102503 | 14 | 250 | 3.2 | 11.3 | 0.00 | 1.22 | 0.03 | 76 | 1016.0 |
| 20260506102049 | 13 | 252 | 3.2 | 11.3 | 0.00 | 1.22 | 0.00 | 75 | 1005.5 |
| 20260506102003 | 14 | 255 | 4.8 | 11.3 | 0.00 | 1.22 | 0.03 | 76 | 1016.0 |
| 20260506101554 | 13 | 256 | 4.8 | 9.7 | 0.00 | 1.22 | 0.00 | 76 | 1005.4 |
| 20260506101503 | 14 | 254 | 4.8 | 11.3 | 0.00 | 1.22 | 0.03 | 76 | 1015.9 |
| 20260506101217 | 14 | 247 | 4.8 | 9.7 | 0.00 | 1.22 | 0.03 | 76 | 1015.9 |
| 20260506101047 | 13 | 252 | 3.2 | 11.3 | 0.00 | 1.22 | 0.00 | 76 | 1005.2 |
| 20260506100547 | 13 | 244 | 4.8 | 11.3 | 0.00 | 1.22 | 0.00 | 76 | 1005.3 |
| 20260506100503 | 13 | 253 | 4.8 | 14.5 | 0.00 | 1.22 | 0.03 | 76 | 1015.8 |
| 20260506100217 | 13 | 255 | 4.8 | 14.5 | 0.00 | 1.22 | 0.03 | 76 | 1015.8 |
| 20260506095548 | 13 | 251 | 4.8 | 14.5 | 0.00 | 1.22 | 0.00 | 77 | 1005.2 |
| 20260506095503 | 13 | 253 | 4.8 | 11.3 | 0.00 | 1.22 | 0.03 | 77 | 1015.8 |
| 20260506095212 | 13 | 236 | 3.2 | 14.5 | 0.00 | 1.22 | 0.00 | 78 | 1005.2 |
| 20260506095003 | 13 | 256 | 4.8 | 14.5 | 0.00 | 1.22 | 0.03 | 79 | 1015.7 |
| 20260506094556 | 13 | 258 | 4.8 | 14.5 | 0.00 | 1.22 | 0.00 | 79 | 1005.2 |
| 20260506094503 | 13 | 263 | 6.4 | 14.5 | 0.00 | 1.22 | 0.03 | 79 | 1015.7 |
| 20260506094048 | 13 | 250 | 6.4 | 12.9 | 0.00 | 1.22 | 0.00 | 79 | 1005.2 |
| 20260506094003 | 13 | 260 | 6.4 | 12.9 | 0.00 | 1.22 | 0.03 | 80 | 1015.7 |
| 20260506093541 | 13 | 261 | 3.2 | 12.9 | 0.00 | 1.22 | 0.00 | 80 | 1005.2 |
| 20260506093503 | 13 | 243 | 4.8 | 12.9 | 0.00 | 1.22 | 0.03 | 80 | 1015.7 |
| 20260506093051 | 13 | 231 | 3.2 | 9.7 | 0.00 | 1.22 | 0.00 | 81 | 1005.3 |
| 20260506093003 | 13 | 234 | 3.2 | 9.7 | 0.00 | 1.22 | 0.03 | 81 | 1015.8 |
| 20260506092718 | 13 | 231 | 3.2 | 9.7 | 0.00 | 1.22 | 0.03 | 80 | 1015.8 |
| 20260506092544 | 13 | 0 | 1.6 | 9.7 | 0.00 | 1.22 | 0.00 | 80 | 1005.3 |
| 20260506092041 | 13 | 267 | 0.0 | 12.9 | 0.00 | 1.22 | 0.00 | 80 | 1005.1 |
| 20260506092003 | 13 | 264 | 3.2 | 16.1 | 0.00 | 1.22 | 0.03 | 81 | 1015.7 |
| 20260506091549 | 13 | 269 | 4.8 | 16.1 | 0.00 | 1.22 | 0.00 | 79 | 1005.1 |
| 20260506091503 | 13 | 261 | 6.4 | 16.1 | 0.00 | 1.22 | 0.03 | 80 | 1015.6 |
| 20260506091044 | 13 | 264 | 4.8 | 16.1 | 0.00 | 1.22 | 0.00 | 79 | 1005.0 |
| 20260506091003 | 13 | 256 | 6.4 | 16.1 | 0.00 | 1.22 | 0.03 | 80 | 1015.6 |
| 20260506090718 | 13 | 254 | 6.4 | 16.1 | 0.00 | 1.22 | 0.03 | 79 | 1015.6 |
| 20260506090543 | 13 | 250 | 6.4 | 14.5 | 0.00 | 1.22 | 0.00 | 79 | 1005.1 |
| 20260506090059 | 13 | 244 | 3.2 | 14.5 | 0.00 | 1.22 | 0.00 | 79 | 1005.1 |
| 20260506090003 | 13 | 253 | 4.8 | 14.5 | 0.00 | 1.22 | 0.03 | 79 | 1015.6 |
| 20260506085545 | 13 | 267 | 3.2 | 11.3 | 0.00 | 1.22 | 0.00 | 79 | 1005.1 |
| 20260506085503 | 13 | 236 | 4.8 | 14.5 | 0.00 | 1.22 | 0.03 | 79 | 1015.7 |
| 20260506085044 | 13 | 250 | 3.2 | 14.5 | 0.00 | 1.22 | 0.00 | 79 | 1005.1 |
| 20260506085003 | 13 | 239 | 4.8 | 14.5 | 0.00 | 1.22 | 0.03 | 79 | 1015.6 |
| 20260506084617 | 13 | 211 | 4.8 | 14.5 | 0.00 | 1.22 | 0.00 | 79 | 1005.1 |
| 20260506084503 | 13 | 242 | 4.8 | 16.1 | 0.00 | 1.22 | 0.03 | 80 | 1015.6 |
| 20260506084045 | 13 | 227 | 3.2 | 11.3 | 0.00 | 1.22 | 0.00 | 79 | 1005.0 |
| 20260506084003 | 13 | 221 | 3.2 | 16.1 | 0.00 | 1.22 | 0.03 | 79 | 1015.6 |
| 20260506083545 | 12 | 225 | 0.0 | 16.1 | 0.00 | 1.22 | 0.00 | 80 | 1005.0 |
| 20260506083503 | 13 | 204 | 4.8 | 16.1 | 0.00 | 1.22 | 0.03 | 81 | 1015.6 |
| 20260506083051 | 12 | 261 | 3.2 | 16.1 | 0.00 | 1.22 | 0.00 | 80 | 1005.0 |
| 20260506083003 | 13 | 215 | 4.8 | 16.1 | 0.00 | 1.22 | 0.03 | 81 | 1015.5 |
| 20260506082544 | 12 | 218 | 1.6 | 14.5 | 0.00 | 1.22 | 0.00 | 81 | 1005.0 |
| 20260506082503 | 12 | 215 | 4.8 | 12.9 | 0.00 | 1.24 | 0.03 | 82 | 1015.6 |
| 20260506082044 | 12 | 211 | 4.8 | 16.1 | 0.00 | 1.22 | 0.00 | 82 | 1005.1 |
| 20260506082003 | 12 | 198 | 6.4 | 17.7 | 0.00 | 1.24 | 0.03 | 82 | 1015.6 |
| 20260506081558 | 12 | 201 | 6.4 | 16.1 | 0.00 | 1.22 | 0.00 | 81 | 1005.1 |
| 20260506081503 | 12 | 199 | 4.8 | 17.7 | 0.00 | 1.24 | 0.03 | 82 | 1015.6 |
| 20260506081216 | 12 | 204 | 4.8 | 17.7 | 0.00 | 1.24 | 0.03 | 82 | 1015.6 |
| 20260506081044 | 12 | 209 | 4.8 | 17.7 | 0.00 | 1.22 | 0.00 | 82 | 1005.1 |
| 20260506080544 | 12 | 204 | 6.4 | 17.7 | 0.00 | 1.22 | 0.00 | 81 | 1005.1 |
| 20260506080503 | 12 | 198 | 8.0 | 17.7 | 0.00 | 1.24 | 0.03 | 82 | 1015.5 |
| 20260506073503 | 13 | 199 | 8.0 | 19.3 | 0.00 | 1.27 | 0.03 | 83 | 1015.5 |
| 20260506073053 | 12 | 246 | 6.4 | 19.3 | 0.00 | 1.24 | 0.00 | 83 | 1005.0 |
| 20260506073003 | 13 | 205 | 6.4 | 19.3 | 0.00 | 1.27 | 0.03 | 83 | 1015.5 |
| 20260506072545 | 12 | 225 | 4.8 | 17.7 | 0.00 | 1.24 | 0.00 | 84 | 1005.0 |
| 20260506072503 | 13 | 205 | 8.0 | 17.7 | 0.00 | 1.27 | 0.03 | 85 | 1015.5 |
| 20260506072218 | 13 | 198 | 8.0 | 17.7 | 0.00 | 1.27 | 0.03 | 85 | 1015.6 |
| 20260506072045 | 12 | 246 | 8.0 | 17.7 | 0.00 | 1.24 | 0.00 | 84 | 1005.0 |
| 20260506071558 | 12 | 197 | 8.0 | 16.1 | 0.00 | 1.24 | 0.00 | 85 | 1004.9 |
| 20260506071503 | 12 | 188 | 8.0 | 16.1 | 0.00 | 1.27 | 0.03 | 86 | 1015.5 |
| 20260506071045 | 12 | 194 | 8.0 | 16.1 | 0.00 | 1.24 | 0.00 | 85 | 1005.0 |
| 20260506071003 | 12 | 191 | 8.0 | 16.1 | 0.00 | 1.27 | 0.03 | 86 | 1015.3 |
| 20260506070544 | 12 | 195 | 4.8 | 12.9 | 0.00 | 1.24 | 0.00 | 86 | 1004.9 |
| 20260506070503 | 12 | 194 | 6.4 | 14.5 | 0.00 | 1.27 | 0.03 | 87 | 1015.4 |
| 20260506062503 | 11 | 193 | 11.3 | 24.1 | 0.00 | 1.27 | 0.03 | 89 | 1015.3 |
| 20260506062045 | 11 | 223 | 9.7 | 24.1 | 0.00 | 1.24 | 0.00 | 89 | 1004.8 |
| 20260506062003 | 11 | 196 | 11.3 | 24.1 | 0.00 | 1.27 | 0.03 | 90 | 1015.4 |
| 20260506061717 | 11 | 198 | 9.7 | 24.1 | 0.00 | 1.27 | 0.03 | 90 | 1015.4 |
| 20260506061555 | 10 | 198 | 11.3 | 24.1 | 0.00 | 1.24 | 0.00 | 89 | 1004.9 |
| 20260506061041 | 10 | 183 | 8.0 | 19.3 | 0.00 | 1.24 | 0.00 | 90 | 1004.9 |
| 20260506061003 | 11 | 199 | 8.0 | 22.5 | 0.00 | 1.27 | 0.03 | 90 | 1015.5 |
| 20260506060717 | 11 | 197 | 8.0 | 22.5 | 0.00 | 1.27 | 0.03 | 91 | 1015.6 |
| 20260506060544 | 10 | 202 | 6.4 | 22.5 | 0.00 | 1.24 | 0.00 | 90 | 1004.9 |
| 20260506051044 | 10 | 194 | 4.8 | 12.9 | 0.00 | 1.24 | 0.00 | 92 | 1004.7 |
| 20260506051003 | 10 | 200 | 4.8 | 12.9 | 0.00 | 1.27 | 0.03 | 92 | 1015.3 |
| 20260506050544 | 10 | 234 | 4.8 | 12.9 | 0.00 | 1.24 | 0.00 | 92 | 1004.8 |
| 20260506050503 | 10 | 197 | 4.8 | 12.9 | 0.00 | 1.27 | 0.03 | 92 | 1015.3 |
| 20260506045043 | 10 | 209 | 4.8 | 11.3 | 0.00 | 1.24 | 0.00 | 92 | 1004.6 |
| 20260506045003 | 10 | 206 | 4.8 | 11.3 | 0.00 | 1.27 | 0.03 | 92 | 1015.1 |
| 20260506044716 | 10 | 206 | 4.8 | 11.3 | 0.00 | 1.27 | 0.03 | 92 | 1015.2 |
| 20260506044553 | 10 | 206 | 3.2 | 9.7 | 0.00 | 1.24 | 0.00 | 92 | 1004.6 |
| 20260506044045 | 10 | 200 | 3.2 | 9.7 | 0.00 | 1.24 | 0.00 | 92 | 1004.6 |
| 20260506044004 | 10 | 205 | 1.6 | 9.7 | 0.00 | 1.27 | 0.03 | 92 | 1015.1 |
| 20260506043544 | 10 | 0 | 0.0 | 9.7 | 0.00 | 1.24 | 0.00 | 92 | 1004.6 |
| 20260506043503 | 10 | 201 | 1.6 | 9.7 | 0.00 | 1.27 | 0.03 | 92 | 1015.1 |
| 20260506043052 | 10 | 0 | 1.6 | 9.7 | 0.00 | 1.24 | 0.00 | 92 | 1004.6 |
| 20260506043003 | 10 | 199 | 3.2 | 9.7 | 0.00 | 1.27 | 0.03 | 92 | 1015.2 |
| 20260506042545 | 10 | 0 | 1.6 | 9.7 | 0.00 | 1.24 | 0.00 | 92 | 1004.7 |
| 20260506042503 | 10 | 200 | 3.2 | 12.9 | 0.00 | 1.27 | 0.03 | 92 | 1015.3 |
| 20260506042217 | 10 | 199 | 3.2 | 12.9 | 0.00 | 1.27 | 0.03 | 92 | 1015.2 |
| 20260506042047 | 10 | 0 | 1.6 | 9.7 | 0.00 | 1.24 | 0.00 | 92 | 1004.7 |
| 20260506041604 | 10 | 200 | 3.2 | 12.9 | 0.00 | 1.24 | 0.00 | 92 | 1004.7 |
| 20260506041503 | 10 | 194 | 3.2 | 12.9 | 0.00 | 1.27 | 0.03 | 92 | 1015.2 |
| 20260506041044 | 10 | 191 | 3.2 | 12.9 | 0.00 | 1.24 | 0.00 | 92 | 1004.7 |
| 20260506041003 | 10 | 200 | 4.8 | 12.9 | 0.00 | 1.27 | 0.03 | 93 | 1015.2 |
| 20260506040545 | 10 | 209 | 3.2 | 11.3 | 0.00 | 1.24 | 0.00 | 92 | 1004.8 |
| 20260506040503 | 10 | 205 | 3.2 | 11.3 | 0.00 | 1.27 | 0.03 | 93 | 1015.2 |
| 20260506040052 | 10 | 198 | 1.6 | 11.3 | 0.00 | 1.24 | 0.00 | 92 | 1004.8 |
| 20260506040003 | 10 | 206 | 3.2 | 11.3 | 0.00 | 1.27 | 0.03 | 93 | 1015.3 |
| 20260506035544 | 10 | 200 | 3.2 | 11.3 | 0.00 | 1.24 | 0.00 | 92 | 1004.8 |
| 20260506035503 | 10 | 204 | 3.2 | 11.3 | 0.00 | 1.27 | 0.03 | 93 | 1015.4 |
| 20260506035044 | 10 | 202 | 3.2 | 11.3 | 0.00 | 1.24 | 0.00 | 92 | 1004.9 |
| 20260506035003 | 10 | 205 | 3.2 | 11.3 | 0.00 | 1.27 | 0.03 | 93 | 1015.5 |
| 20260506034550 | 10 | 197 | 1.6 | 9.7 | 0.00 | 1.24 | 0.00 | 92 | 1005.0 |
| 20260506034503 | 10 | 207 | 3.2 | 9.7 | 0.00 | 1.27 | 0.03 | 93 | 1015.5 |
| 20260506034043 | 10 | 209 | 1.6 | 9.7 | 0.00 | 1.24 | 0.00 | 92 | 1005.1 |
| 20260506034003 | 10 | 205 | 1.6 | 11.3 | 0.00 | 1.27 | 0.03 | 93 | 1015.6 |
| 20260506033543 | 10 | 201 | 0.0 | 9.7 | 0.00 | 1.24 | 0.00 | 92 | 1005.1 |
| 20260506033503 | 10 | 207 | 3.2 | 11.3 | 0.00 | 1.27 | 0.03 | 93 | 1015.6 |
| 20260506033217 | 10 | 207 | 3.2 | 11.3 | 0.00 | 1.27 | 0.03 | 93 | 1015.7 |
| 20260506033052 | 9 | 0 | 4.8 | 11.3 | 0.00 | 1.24 | 0.00 | 92 | 1005.2 |
| 20260506032544 | 9 | 204 | 3.2 | 11.3 | 0.00 | 1.24 | 0.00 | 92 | 1005.1 |
| 20260506032503 | 10 | 206 | 4.8 | 11.3 | 0.00 | 1.27 | 0.03 | 93 | 1015.7 |
| 20260506032047 | 9 | 200 | 4.8 | 11.3 | 0.00 | 1.24 | 0.00 | 93 | 1005.2 |
| 20260506032003 | 10 | 210 | 4.8 | 11.3 | 0.00 | 1.27 | 0.03 | 93 | 1015.7 |
| 20260506031548 | 9 | 202 | 4.8 | 11.3 | 0.00 | 1.24 | 0.00 | 93 | 1005.2 |
| 20260506031503 | 9 | 209 | 4.8 | 11.3 | 0.00 | 1.27 | 0.03 | 93 | 1015.7 |
| 20260506031045 | 9 | 204 | 3.2 | 9.7 | 0.00 | 1.24 | 0.00 | 92 | 1005.2 |
| 20260506031003 | 9 | 208 | 4.8 | 9.7 | 0.00 | 1.27 | 0.03 | 93 | 1015.7 |
| 20260506030547 | 8 | 211 | 4.8 | 8.0 | 0.00 | 1.24 | 0.00 | 92 | 1005.2 |
| 20260506030503 | 9 | 217 | 3.2 | 9.7 | 0.00 | 1.27 | 0.03 | 93 | 1015.7 |
| 20260506030054 | 8 | 218 | 1.6 | 9.7 | 0.00 | 1.24 | 0.00 | 92 | 1005.2 |
| 20260506030003 | 9 | 226 | 3.2 | 9.7 | 0.00 | 1.27 | 0.03 | 92 | 1015.7 |
| 20260506025717 | 9 | 227 | 1.6 | 9.7 | 0.00 | 1.27 | 0.03 | 93 | 1015.7 |
| 20260506025544 | 8 | 234 | 0.0 | 9.7 | 0.00 | 1.24 | 0.00 | 92 | 1005.2 |
| 20260506025047 | 8 | 221 | 0.0 | 6.4 | 0.00 | 1.24 | 0.00 | 92 | 1005.2 |
| 20260506025003 | 9 | 218 | 1.6 | 6.4 | 0.00 | 1.27 | 0.03 | 92 | 1015.8 |
| 20260506024552 | 8 | 220 | 1.6 | 6.4 | 0.00 | 1.24 | 0.00 | 92 | 1005.3 |
| 20260506024503 | 9 | 217 | 1.6 | 9.7 | 0.00 | 1.27 | 0.03 | 92 | 1015.8 |
| 20260506024044 | 9 | 216 | 1.6 | 6.4 | 0.00 | 1.24 | 0.00 | 92 | 1005.3 |
| 20260506024003 | 9 | 215 | 3.2 | 9.7 | 0.00 | 1.27 | 0.03 | 92 | 1015.9 |
| 20260506023545 | 9 | 219 | 1.6 | 9.7 | 0.00 | 1.24 | 0.00 | 92 | 1005.4 |
| 20260506023503 | 9 | 212 | 3.2 | 9.7 | 0.00 | 1.27 | 0.03 | 92 | 1015.9 |
| 20260506023103 | 9 | 209 | 1.6 | 9.7 | 0.00 | 1.24 | 0.00 | 92 | 1005.3 |
| 20260506023003 | 9 | 214 | 3.2 | 9.7 | 0.00 | 1.27 | 0.03 | 92 | 1015.9 |
| 20260506022545 | 9 | 211 | 1.6 | 9.7 | 0.00 | 1.24 | 0.00 | 92 | 1005.4 |
| 20260506022503 | 9 | 219 | 3.2 | 9.7 | 0.00 | 1.27 | 0.03 | 92 | 1015.8 |
| 20260506022045 | 9 | 222 | 0.0 | 9.7 | 0.00 | 1.24 | 0.00 | 92 | 1005.4 |
| 20260506022003 | 9 | 218 | 3.2 | 9.7 | 0.00 | 1.27 | 0.03 | 92 | 1016.0 |
| 20260506021610 | 9 | 220 | 3.2 | 9.7 | 0.00 | 1.24 | 0.00 | 92 | 1005.4 |
| 20260506021503 | 9 | 212 | 4.8 | 9.7 | 0.00 | 1.27 | 0.03 | 92 | 1015.9 |
| 20260506021216 | 9 | 207 | 4.8 | 9.7 | 0.00 | 1.27 | 0.03 | 92 | 1015.9 |
| 20260506021049 | 9 | 209 | 3.2 | 8.0 | 0.00 | 1.24 | 0.00 | 92 | 1005.4 |
| 20260506020717 | 9 | 204 | 3.2 | 8.0 | 0.00 | 1.27 | 0.03 | 92 | 1016.0 |
| 20260506020544 | 9 | 205 | 3.2 | 8.0 | 0.00 | 1.24 | 0.00 | 92 | 1005.4 |
| 20260506020050 | 9 | 202 | 3.2 | 6.4 | 0.00 | 1.24 | 0.00 | 92 | 1005.3 |
| 20260506020003 | 10 | 202 | 3.2 | 8.0 | 0.00 | 1.27 | 0.03 | 92 | 1015.8 |
| 20260506015544 | 9 | 202 | 3.2 | 8.0 | 0.00 | 1.24 | 0.00 | 92 | 1005.2 |
| 20260506015503 | 10 | 201 | 1.6 | 8.0 | 0.00 | 1.27 | 0.03 | 92 | 1015.8 |
| 20260506015049 | 9 | 201 | 0.0 | 8.0 | 0.00 | 1.24 | 0.00 | 92 | 1005.3 |
| 20260506015003 | 10 | 200 | 1.6 | 8.0 | 0.00 | 1.27 | 0.03 | 92 | 1015.8 |
| 20260506014717 | 10 | 199 | 3.2 | 8.0 | 0.03 | 1.27 | 0.03 | 92 | 1015.9 |
| 20260506014551 | 9 | 201 | 1.6 | 8.0 | 0.00 | 1.24 | 0.00 | 92 | 1005.3 |
| 20260506014047 | 9 | 199 | 3.2 | 6.4 | 0.00 | 1.24 | 0.00 | 92 | 1005.4 |
| 20260506014003 | 10 | 199 | 3.2 | 8.0 | 0.03 | 1.27 | 0.03 | 92 | 1015.9 |
| 20260506013544 | 10 | 199 | 1.6 | 6.4 | 0.00 | 1.24 | 0.00 | 92 | 1005.4 |
| 20260506013503 | 10 | 199 | 1.6 | 8.0 | 0.03 | 1.27 | 0.03 | 92 | 1015.8 |
| 20260506013107 | 10 | 199 | 1.6 | 8.0 | 0.00 | 1.24 | 0.00 | 92 | 1005.3 |
| 20260506013003 | 10 | 199 | 3.2 | 8.0 | 0.03 | 1.27 | 0.03 | 92 | 1015.9 |
| 20260506012544 | 10 | 199 | 3.2 | 8.0 | 0.00 | 1.24 | 0.00 | 92 | 1005.5 |
| 20260506012503 | 10 | 199 | 3.2 | 8.0 | 0.03 | 1.27 | 0.03 | 92 | 1016.0 |
| 20260506012047 | 10 | 199 | 1.6 | 8.0 | 0.00 | 1.24 | 0.00 | 92 | 1005.6 |
| 20260506012003 | 10 | 199 | 3.2 | 8.0 | 0.03 | 1.27 | 0.03 | 92 | 1016.1 |
| 20260506011612 | 10 | 199 | 3.2 | 8.0 | 0.00 | 1.24 | 0.00 | 92 | 1005.6 |
| 20260506011503 | 10 | 199 | 3.2 | 9.7 | 0.03 | 1.27 | 0.03 | 92 | 1016.1 |
| 20260506011045 | 10 | 199 | 1.6 | 8.0 | 0.00 | 1.24 | 0.00 | 92 | 1005.6 |
| 20260506011003 | 10 | 199 | 3.2 | 9.7 | 0.03 | 1.27 | 0.03 | 92 | 1016.2 |
| 20260506010717 | 10 | 199 | 3.2 | 8.0 | 0.03 | 1.27 | 0.03 | 92 | 1016.2 |
| 20260506010544 | 10 | 199 | 1.6 | 9.7 | 0.00 | 1.24 | 0.00 | 92 | 1005.7 |
| 20260506010056 | 10 | 199 | 3.2 | 9.7 | 0.00 | 1.24 | 0.00 | 92 | 1005.7 |
| 20260506010003 | 10 | 201 | 3.2 | 9.7 | 0.03 | 1.27 | 0.03 | 92 | 1016.2 |
| 20260506005717 | 10 | 202 | 1.6 | 9.7 | 0.03 | 1.27 | 0.03 | 92 | 1016.2 |
| 20260506005548 | 10 | 202 | 1.6 | 6.4 | 0.00 | 1.24 | 0.00 | 92 | 1005.6 |
| 20260506005044 | 10 | 0 | 0.0 | 4.8 | 0.00 | 1.24 | 0.00 | 92 | 1005.7 |
| 20260506005003 | 10 | 204 | 1.6 | 4.8 | 0.03 | 1.27 | 0.03 | 92 | 1016.2 |
| 20260506004717 | 10 | 204 | 1.6 | 6.4 | 0.00 | 1.24 | 0.00 | 92 | 1016.3 |
| 20260506004553 | 10 | 204 | 1.6 | 4.8 | 0.00 | 1.22 | 0.00 | 92 | 1005.8 |
| 20260506004218 | 10 | 204 | 1.6 | 6.4 | 0.00 | 1.24 | 0.00 | 92 | 1016.3 |
| 20260506004044 | 10 | 204 | 1.6 | 4.8 | 0.00 | 1.22 | 0.00 | 92 | 1005.7 |
| 20260506003544 | 10 | 204 | 0.0 | 6.4 | 0.00 | 1.22 | 0.00 | 92 | 1005.9 |
| 20260506003503 | 10 | 204 | 1.6 | 6.4 | 0.00 | 1.24 | 0.00 | 92 | 1016.4 |
| 20260506003056 | 10 | 204 | 1.6 | 6.4 | 0.00 | 1.22 | 0.00 | 92 | 1005.9 |
| 20260506003003 | 10 | 204 | 1.6 | 6.4 | 0.00 | 1.24 | 0.00 | 92 | 1016.5 |
| 20260506002543 | 10 | 204 | 0.0 | 4.8 | 0.00 | 1.22 | 0.00 | 92 | 1005.9 |
| 20260506002503 | 10 | 204 | 1.6 | 6.4 | 0.00 | 1.24 | 0.00 | 92 | 1016.5 |
| 20260506002041 | 10 | 204 | 0.0 | 6.4 | 0.00 | 1.22 | 0.00 | 92 | 1006.0 |
| 20260506002003 | 11 | 204 | 1.6 | 6.4 | 0.00 | 1.24 | 0.00 | 92 | 1016.6 |
| 20260506001556 | 10 | 204 | 0.0 | 6.4 | 0.00 | 1.22 | 0.00 | 92 | 1006.0 |
| 20260506001503 | 11 | 204 | 1.6 | 6.4 | 0.00 | 1.24 | 0.00 | 92 | 1016.6 |
| 20260506001045 | 10 | 204 | 1.6 | 6.4 | 0.00 | 1.22 | 0.00 | 92 | 1006.0 |
| 20260506001003 | 11 | 204 | 3.2 | 6.4 | 0.00 | 1.24 | 0.00 | 92 | 1016.6 |
| 20260506000546 | 10 | 204 | 1.6 | 6.4 | 0.00 | 1.22 | 0.00 | 92 | 1006.1 |
| 20260506000503 | 11 | 203 | 3.2 | 6.4 | 0.00 | 1.24 | 0.00 | 92 | 1016.5 |
| 20260506000056 | 10 | 204 | 1.6 | 6.4 | 0.00 | 1.22 | 0.00 | 92 | 1006.1 |
| 20260506000003 | 11 | 203 | 1.6 | 6.4 | 0.00 | 1.24 | 0.00 | 92 | 1016.6 |
| 20260505235548 | 10 | 0 | 0.0 | 4.8 | 0.00 | 1.22 | 0.00 | 92 | 1006.2 |
| 20260505235503 | 11 | 203 | 1.6 | 8.0 | 0.00 | 1.24 | 0.00 | 92 | 1016.7 |
| 20260505235044 | 10 | 0 | 0.0 | 6.4 | 0.00 | 1.22 | 0.00 | 92 | 1006.2 |
| 20260505235003 | 11 | 203 | 3.2 | 8.0 | 0.00 | 1.24 | 0.00 | 92 | 1016.7 |
| 20260505234552 | 11 | 203 | 3.2 | 8.0 | 0.00 | 1.22 | 0.00 | 92 | 1006.1 |
| 20260505234503 | 11 | 203 | 3.2 | 8.0 | 0.00 | 1.24 | 0.00 | 92 | 1016.7 |
| 20260505234217 | 11 | 204 | 3.2 | 8.0 | 0.00 | 1.24 | 0.00 | 92 | 1016.7 |
| 20260505234045 | 11 | 203 | 3.2 | 8.0 | 0.00 | 1.22 | 0.00 | 92 | 1006.1 |
| 20260505233544 | 11 | 204 | 1.6 | 6.4 | 0.00 | 1.22 | 0.00 | 92 | 1006.1 |
| 20260505233503 | 11 | 207 | 3.2 | 8.0 | 0.00 | 1.24 | 0.00 | 92 | 1016.7 |
| 20260505233217 | 11 | 208 | 3.2 | 6.4 | 0.00 | 1.24 | 0.00 | 92 | 1016.8 |
| 20260505233058 | 11 | 207 | 3.2 | 6.4 | 0.00 | 1.22 | 0.00 | 92 | 1006.1 |
| 20260505232544 | 11 | 208 | 3.2 | 6.4 | 0.00 | 1.22 | 0.00 | 92 | 1006.2 |
| 20260505232503 | 11 | 208 | 3.2 | 6.4 | 0.00 | 1.24 | 0.00 | 92 | 1016.8 |
| 20260505232048 | 11 | 208 | 1.6 | 6.4 | 0.00 | 1.22 | 0.00 | 91 | 1006.2 |
| 20260505232003 | 11 | 208 | 3.2 | 6.4 | 0.00 | 1.24 | 0.00 | 92 | 1016.8 |
| 20260505231612 | 11 | 0 | 1.6 | 6.4 | 0.00 | 1.22 | 0.00 | 92 | 1006.4 |
| 20260505231503 | 11 | 208 | 3.2 | 6.4 | 0.00 | 1.24 | 0.00 | 92 | 1016.8 |
| 20260505231044 | 11 | 208 | 1.6 | 4.8 | 0.00 | 1.22 | 0.00 | 92 | 1006.4 |
| 20260505231003 | 11 | 208 | 3.2 | 4.8 | 0.00 | 1.24 | 0.00 | 92 | 1016.9 |
| 20260505230718 | 11 | 208 | 3.2 | 4.8 | 0.00 | 1.24 | 0.00 | 92 | 1016.8 |
| 20260505230544 | 11 | 208 | 1.6 | 4.8 | 0.00 | 1.22 | 0.00 | 92 | 1006.2 |
| 20260505230053 | 11 | 208 | 1.6 | 4.8 | 0.00 | 1.22 | 0.00 | 92 | 1006.3 |
| 20260505230003 | 11 | 208 | 1.6 | 4.8 | 0.00 | 1.24 | 0.00 | 92 | 1016.8 |
| 20260505225545 | 11 | 208 | 0.0 | 3.2 | 0.00 | 1.22 | 0.00 | 92 | 1006.5 |
| 20260505225503 | 11 | 208 | 1.6 | 4.8 | 0.00 | 1.24 | 0.00 | 92 | 1017.0 |
| 20260505225045 | 11 | 208 | 0.0 | 4.8 | 0.00 | 1.22 | 0.00 | 91 | 1006.5 |
| 20260505225003 | 11 | 208 | 0.0 | 4.8 | 0.00 | 1.24 | 0.00 | 92 | 1017.0 |
| 20260505224554 | 11 | 0 | 0.0 | 4.8 | 0.00 | 1.22 | 0.00 | 91 | 1006.5 |
| 20260505224503 | 11 | 208 | 1.6 | 4.8 | 0.00 | 1.24 | 0.00 | 92 | 1017.0 |
| 20260505224217 | 11 | 208 | 1.6 | 4.8 | 0.00 | 1.24 | 0.00 | 92 | 1017.0 |
| 20260505224044 | 11 | 208 | 0.0 | 3.2 | 0.00 | 1.22 | 0.00 | 91 | 1006.5 |
| 20260505223543 | 11 | 0 | 0.0 | 3.2 | 0.00 | 1.22 | 0.00 | 91 | 1006.5 |
| 20260505223503 | 11 | 208 | 1.6 | 4.8 | 0.00 | 1.24 | 0.00 | 92 | 1017.1 |
| 20260505223058 | 11 | 208 | 0.0 | 6.4 | 0.00 | 1.22 | 0.00 | 91 | 1006.5 |
| 20260505223003 | 11 | 208 | 1.6 | 8.0 | 0.00 | 1.24 | 0.00 | 92 | 1016.9 |
| 20260505222547 | 11 | 0 | 0.0 | 6.4 | 0.00 | 1.22 | 0.00 | 91 | 1006.5 |
| 20260505222503 | 11 | 208 | 3.2 | 8.0 | 0.00 | 1.24 | 0.00 | 92 | 1016.9 |
| 20260505222044 | 11 | 208 | 3.2 | 8.0 | 0.00 | 1.22 | 0.00 | 91 | 1006.4 |
| 20260505222003 | 11 | 207 | 3.2 | 8.0 | 0.00 | 1.24 | 0.00 | 92 | 1017.0 |
| 20260505221553 | 11 | 207 | 3.2 | 8.0 | 0.00 | 1.22 | 0.00 | 91 | 1006.5 |
| 20260505221503 | 11 | 206 | 1.6 | 8.0 | 0.00 | 1.24 | 0.00 | 92 | 1016.9 |
| 20260505221047 | 11 | 0 | 1.6 | 6.4 | 0.00 | 1.22 | 0.00 | 91 | 1006.4 |
| 20260505221003 | 11 | 205 | 1.6 | 6.4 | 0.00 | 1.24 | 0.00 | 92 | 1016.9 |
| 20260505220547 | 11 | 0 | 1.6 | 6.4 | 0.00 | 1.22 | 0.00 | 91 | 1006.4 |
| 20260505220503 | 11 | 205 | 3.2 | 6.4 | 0.00 | 1.24 | 0.00 | 92 | 1016.9 |
| 20260505220058 | 11 | 205 | 1.6 | 4.8 | 0.00 | 1.22 | 0.00 | 91 | 1006.4 |
| 20260505220003 | 11 | 205 | 3.2 | 6.4 | 0.00 | 1.24 | 0.00 | 92 | 1016.9 |
| 20260505215547 | 11 | 205 | 1.6 | 6.4 | 0.00 | 1.22 | 1.22 | 91 | 1006.4 |
| 20260505215503 | 11 | 205 | 3.2 | 6.4 | 0.00 | 1.24 | 1.24 | 92 | 1016.9 |
| 20260505215047 | 11 | 205 | 1.6 | 6.4 | 0.00 | 1.22 | 1.22 | 91 | 1006.4 |
| 20260505215003 | 11 | 205 | 3.2 | 6.4 | 0.00 | 1.24 | 1.24 | 92 | 1016.8 |
| 20260505214559 | 11 | 205 | 3.2 | 6.4 | 0.00 | 1.22 | 1.22 | 91 | 1006.4 |
| 20260505214503 | 11 | 205 | 3.2 | 6.4 | 0.00 | 1.24 | 1.24 | 92 | 1016.8 |
| 20260505214047 | 11 | 205 | 1.6 | 6.4 | 0.00 | 1.22 | 1.22 | 91 | 1006.2 |
| 20260505214003 | 12 | 205 | 1.6 | 4.8 | 0.00 | 1.24 | 1.24 | 92 | 1016.9 |
| 20260505213545 | 11 | 205 | 0.0 | 6.4 | 0.00 | 1.22 | 1.22 | 91 | 1006.3 |
| 20260505213503 | 12 | 205 | 1.6 | 6.4 | 0.00 | 1.24 | 1.24 | 92 | 1016.8 |
| 20260505213049 | 11 | 205 | 3.2 | 6.4 | 0.00 | 1.22 | 1.22 | 91 | 1006.4 |
| 20260505213003 | 12 | 205 | 3.2 | 6.4 | 0.00 | 1.24 | 1.24 | 92 | 1016.9 |
| 20260505212717 | 12 | 205 | 3.2 | 6.4 | 0.00 | 1.24 | 1.24 | 92 | 1016.9 |
| 20260505212547 | 11 | 205 | 3.2 | 6.4 | 0.00 | 1.22 | 1.22 | 91 | 1006.4 |
| 20260505212046 | 11 | 205 | 1.6 | 6.4 | 0.00 | 1.22 | 1.22 | 91 | 1006.5 |
| 20260505212003 | 12 | 205 | 1.6 | 6.4 | 0.00 | 1.24 | 1.24 | 92 | 1017.0 |
| 20260505211554 | 11 | 205 | 0.0 | 6.4 | 0.00 | 1.22 | 1.22 | 91 | 1006.4 |
| 20260505211503 | 12 | 205 | 1.6 | 6.4 | 0.00 | 1.24 | 1.24 | 92 | 1017.0 |
| 20260505211216 | 12 | 205 | 3.2 | 6.4 | 0.00 | 1.24 | 1.24 | 92 | 1016.9 |
| 20260505211046 | 12 | 0 | 1.6 | 6.4 | 0.00 | 1.22 | 1.22 | 91 | 1006.4 |
| 20260505210546 | 11 | 205 | 3.2 | 6.4 | 0.00 | 1.22 | 1.22 | 91 | 1006.4 |
| 20260505210503 | 12 | 205 | 3.2 | 6.4 | 0.00 | 1.24 | 1.24 | 92 | 1016.9 |
| 20260505210216 | 12 | 205 | 3.2 | 6.4 | 0.00 | 1.24 | 1.24 | 92 | 1016.9 |
| 20260505210058 | 11 | 205 | 1.6 | 4.8 | 0.00 | 1.22 | 1.22 | 91 | 1006.5 |
| 20260505205547 | 11 | 205 | 1.6 | 4.8 | 0.00 | 1.22 | 1.22 | 91 | 1006.4 |
| 20260505205503 | 12 | 205 | 1.6 | 4.8 | 0.00 | 1.24 | 1.24 | 92 | 1016.9 |
| 20260505205216 | 12 | 205 | 3.2 | 4.8 | 0.00 | 1.24 | 1.24 | 92 | 1016.9 |
| 20260505205047 | 11 | 205 | 1.6 | 4.8 | 0.00 | 1.22 | 1.22 | 91 | 1006.3 |
| 20260505204717 | 12 | 205 | 1.6 | 4.8 | 0.00 | 1.24 | 1.24 | 92 | 1016.7 |
| 20260505204557 | 11 | 205 | 1.6 | 4.8 | 0.00 | 1.22 | 1.22 | 91 | 1006.4 |
| 20260505204046 | 11 | 205 | 0.0 | 1.6 | 0.00 | 1.22 | 1.22 | 91 | 1006.4 |
| 20260505204003 | 12 | 205 | 0.0 | 1.6 | 0.00 | 1.24 | 1.24 | 92 | 1017.0 |
| 20260505203547 | 11 | 0 | 0.0 | 1.6 | 0.00 | 1.22 | 1.22 | 91 | 1006.4 |
| 20260505203503 | 12 | 205 | 0.0 | 1.6 | 0.00 | 1.24 | 1.24 | 92 | 1017.0 |
| 20260505203114 | 11 | 0 | 0.0 | 0.0 | 0.00 | 1.22 | 1.22 | 91 | 1006.4 |
| 20260505203003 | 12 | 0 | 0.0 | 4.8 | 0.00 | 1.24 | 1.24 | 91 | 1016.9 |
| 20260505202547 | 11 | 0 | 0.0 | 3.2 | 0.00 | 1.22 | 1.22 | 91 | 1006.5 |
| 20260505202503 | 12 | 205 | 0.0 | 4.8 | 0.00 | 1.24 | 1.24 | 91 | 1017.0 |
| 20260505202047 | 11 | 0 | 0.0 | 4.8 | 0.00 | 1.22 | 1.22 | 91 | 1006.4 |
| 20260505202003 | 12 | 205 | 0.0 | 4.8 | 0.00 | 1.24 | 1.24 | 91 | 1016.9 |
| 20260505201601 | 11 | 205 | 0.0 | 4.8 | 0.00 | 1.22 | 1.22 | 91 | 1006.2 |
| 20260505201503 | 12 | 205 | 1.6 | 4.8 | 0.00 | 1.24 | 1.24 | 91 | 1016.9 |
| 20260505201047 | 11 | 0 | 1.6 | 4.8 | 0.00 | 1.22 | 1.22 | 91 | 1006.2 |
| 20260505201003 | 12 | 205 | 1.6 | 4.8 | 0.00 | 1.24 | 1.24 | 91 | 1016.8 |
| 20260505200547 | 11 | 0 | 0.0 | 4.8 | 0.00 | 1.22 | 1.22 | 90 | 1006.1 |
| 20260505200503 | 12 | 205 | 0.0 | 4.8 | 0.00 | 1.24 | 1.24 | 91 | 1016.6 |
| 20260505200058 | 12 | 0 | 0.0 | 3.2 | 0.00 | 1.22 | 1.22 | 91 | 1006.1 |
| 20260505200003 | 12 | 205 | 0.0 | 4.8 | 0.00 | 1.24 | 1.24 | 91 | 1016.6 |
| 20260505195717 | 12 | 205 | 0.0 | 4.8 | 0.00 | 1.24 | 1.24 | 91 | 1016.6 |
| 20260505195548 | 12 | 0 | 0.0 | 4.8 | 0.00 | 1.22 | 1.22 | 91 | 1006.1 |
| 20260505195045 | 12 | 0 | 0.0 | 4.8 | 0.00 | 1.22 | 1.22 | 90 | 1006.1 |
| 20260505195003 | 12 | 205 | 1.6 | 6.4 | 0.00 | 1.24 | 1.24 | 91 | 1016.7 |
| 20260505194717 | 12 | 205 | 1.6 | 6.4 | 0.00 | 1.24 | 1.24 | 91 | 1016.6 |
| 20260505194556 | 12 | 0 | 1.6 | 6.4 | 0.00 | 1.22 | 1.22 | 90 | 1006.1 |